Time;durP1;ratioP1;P1;durP2;ratioP2;P2;SDS_P1;SDS_P2;PMS_P1;PMS_P2;Temp;Humidity;BMP_temperature;BMP_pressure;BME280_temperature;BME280_humidity;BME280_pressure;Samples;Min_cycle;Max_cycle;Signal;HPM_P1;HPM_P2
2023/12/30 00:01:06;;;;;;;101.25;74.18;;;;;;;0.13;100.00;100490.47;5609160;31;34324;-75
2023/12/30 00:04:10;;;;;;;101.43;76.25;;;;;;;0.18;100.00;100488.41;5609124;31;34061;-74
2023/12/30 00:07:12;;;;;;;101.70;76.68;;;;;;;0.15;100.00;100485.97;5609094;31;34677;-75
2023/12/30 00:10:15;;;;;;;109.55;74.80;;;;;;;0.12;100.00;100481.78;5608349;31;34973;-74
2023/12/30 00:13:18;;;;;;;99.60;71.40;;;;;;;0.08;100.00;100476.88;5609268;31;34195;-75
2023/12/30 00:16:22;;;;;;;108.93;77.45;;;;;;;0.02;100.00;100472.03;5609374;31;34255;-75
2023/12/30 00:19:25;;;;;;;94.78;71.62;;;;;;;-0.03;100.00;100474.94;5608473;31;33968;-75
2023/12/30 00:22:29;;;;;;;91.82;70.47;;;;;;;-0.05;100.00;100475.03;5608079;31;34226;-75
2023/12/30 00:25:32;;;;;;;105.72;77.25;;;;;;;-0.04;100.00;100481.09;5608160;31;34738;-75
2023/12/30 00:28:35;;;;;;;102.70;74.85;;;;;;;-0.04;100.00;100481.09;5608800;31;34113;-75
2023/12/30 00:31:38;;;;;;;103.65;75.60;;;;;;;-0.08;100.00;100483.06;5608844;31;34034;-75
2023/12/30 00:34:41;;;;;;;96.97;71.95;;;;;;;-0.11;100.00;100491.09;5609200;31;34747;-75
2023/12/30 00:37:45;;;;;;;89.50;69.22;;;;;;;-0.11;100.00;100487.66;5608785;31;34700;-74
2023/12/30 00:40:47;;;;;;;89.85;68.43;;;;;;;-0.12;100.00;100489.41;5608109;31;34072;-75
2023/12/30 00:43:51;;;;;;;91.53;70.28;;;;;;;-0.17;100.00;100491.47;5608979;31;34242;-75
2023/12/30 00:46:54;;;;;;;86.82;64.97;;;;;;;-0.06;100.00;100491.66;5607268;31;34118;-75
2023/12/30 00:49:57;;;;;;;98.32;73.10;;;;;;;-0.01;100.00;100488.75;5609060;31;34678;-74
2023/12/30 00:52:59;;;;;;;100.10;71.43;;;;;;;0.01;100.00;100486.84;5608527;31;34225;-74
2023/12/30 00:56:03;;;;;;;90.93;67.40;;;;;;;-0.01;100.00;100483.53;5607843;31;34120;-74
2023/12/30 00:59:06;;;;;;;96.50;70.53;;;;;;;-0.01;100.00;100481.75;5608766;31;33991;-73
2023/12/30 01:02:09;;;;;;;95.07;69.05;;;;;;;0.01;100.00;100476.41;5608390;31;34391;-73
2023/12/30 01:05:12;;;;;;;111.03;77.68;;;;;;;-0.16;100.00;100490.56;5608506;31;33960;-73
2023/12/30 01:08:15;;;;;;;110.53;75.05;;;;;;;-0.16;100.00;100493.16;5607940;31;33995;-75
2023/12/30 01:11:19;;;;;;;274.33;110.97;;;;;;;-0.08;100.00;100487.44;5608514;31;33319;-73
2023/12/30 01:14:21;;;;;;;282.15;107.18;;;;;;;0.08;100.00;100488.16;5608553;31;34295;-74
2023/12/30 01:17:24;;;;;;;366.42;127.32;;;;;;;0.15;100.00;100484.19;5608259;31;34010;-75
2023/12/30 01:20:27;;;;;;;897.15;207.20;;;;;;;0.23;100.00;100487.16;5607653;31;34328;-74
2023/12/30 01:23:30;;;;;;;421.45;115.18;;;;;;;0.34;100.00;100491.66;5608198;31;35436;-74
2023/12/30 01:26:37;;;;;;;424.80;130.35;;;;;;;0.39;100.00;100487.81;5607551;31;34018;-74
2023/12/30 01:29:40;;;;;;;702.20;176.63;;;;;;;0.50;100.00;100494.09;5608243;31;33973;-74
2023/12/30 01:32:45;;;;;;;381.70;127.28;;;;;;;0.56;100.00;100491.09;5608622;31;34220;-74
2023/12/30 01:35:48;;;;;;;456.45;141.15;;;;;;;0.63;100.00;100489.78;5608207;31;33999;-75
2023/12/30 01:38:51;;;;;;;666.90;169.20;;;;;;;0.70;100.00;100488.41;5608126;31;34260;-75
2023/12/30 01:41:54;;;;;;;985.50;204.10;;;;;;;0.72;100.00;100492.59;5608087;31;34087;-75
2023/12/30 01:44:57;;;;;;;442.60;139.82;;;;;;;0.80;100.00;100498.13;5608158;31;34246;-74
2023/12/30 01:48:02;;;;;;;343.73;123.75;;;;;;;0.79;100.00;100493.00;5607992;31;33991;-74
2023/12/30 01:51:09;;;;;;;380.25;119.30;;;;;;;0.81;100.00;100483.31;5607456;31;34109;-74
2023/12/30 01:54:28;;;;;;;394.48;127.47;;;;;;;0.87;100.00;100473.25;5608261;31;34089;-74
2023/12/30 01:57:31;;;;;;;503.60;147.40;;;;;;;0.96;100.00;100479.66;5607634;31;34153;-74
2023/12/30 02:00:36;;;;;;;334.00;118.10;;;;;;;0.87;100.00;100475.88;5606766;31;34644;-74
2023/12/30 02:03:40;;;;;;;661.35;153.65;;;;;;;0.82;100.00;100471.94;5607713;31;34689;-74
2023/12/30 02:06:43;;;;;;;406.48;122.72;;;;;;;0.79;100.00;100470.34;5607732;31;34239;-74
2023/12/30 02:09:46;;;;;;;537.30;140.73;;;;;;;0.72;100.00;100469.09;5607703;31;34263;-74
2023/12/30 02:12:49;;;;;;;411.45;132.93;;;;;;;0.77;100.00;100472.25;5607614;31;34002;-75
2023/12/30 02:15:52;;;;;;;405.67;140.07;;;;;;;0.78;100.00;100471.28;5607474;31;35012;-75
2023/12/30 02:18:55;;;;;;;472.15;139.30;;;;;;;0.80;100.00;100471.19;5607270;31;34668;-75
2023/12/30 02:21:58;;;;;;;640.95;148.38;;;;;;;0.80;100.00;100472.03;5606726;31;34066;-75
2023/12/30 02:25:02;;;;;;;363.95;129.07;;;;;;;0.79;100.00;100454.69;5607306;31;34985;-75
2023/12/30 02:28:06;;;;;;;486.02;157.60;;;;;;;0.84;100.00;100467.41;5607301;31;34014;-75
2023/12/30 02:31:08;;;;;;;370.40;126.50;;;;;;;0.86;100.00;100465.56;5606863;31;34824;-75
2023/12/30 02:34:14;;;;;;;797.20;190.05;;;;;;;0.86;100.00;100455.94;5606564;31;34052;-74
2023/12/30 02:37:17;;;;;;;660.25;168.45;;;;;;;0.88;100.00;100451.44;5607430;31;34650;-74
2023/12/30 02:40:20;;;;;;;459.20;141.30;;;;;;;0.86;100.00;100458.56;5607287;31;34237;-75
2023/12/30 02:43:24;;;;;;;378.55;133.68;;;;;;;0.87;100.00;100468.03;5606568;31;34834;-75
2023/12/30 02:46:27;;;;;;;647.97;199.87;;;;;;;0.87;100.00;100468.03;5606925;31;34211;-74
2023/12/30 02:49:33;;;;;;;673.90;175.32;;;;;;;0.81;100.00;100458.03;5607061;31;34323;-75
2023/12/30 02:52:36;;;;;;;489.33;162.95;;;;;;;0.90;100.00;100466.19;5607107;31;34036;-74
2023/12/30 02:55:39;;;;;;;482.00;152.85;;;;;;;0.96;100.00;100469.22;5606767;31;33979;-74
2023/12/30 02:58:42;;;;;;;577.58;170.65;;;;;;;0.92;100.00;100459.88;5606701;31;34142;-75
2023/12/30 03:01:45;;;;;;;431.80;149.57;;;;;;;0.94;100.00;100459.78;5605914;31;34258;-75
2023/12/30 03:04:49;;;;;;;415.25;143.35;;;;;;;0.99;100.00;100455.94;5607066;31;33993;-75
2023/12/30 03:07:52;;;;;;;756.58;190.95;;;;;;;1.08;100.00;100454.47;5605692;31;34202;-75
2023/12/30 03:10:56;;;;;;;326.52;125.05;;;;;;;1.04;100.00;100453.84;5608197;31;34759;-75
2023/12/30 03:13:59;;;;;;;508.35;158.23;;;;;;;1.07;100.00;100452.78;5609480;31;34091;-75
2023/12/30 03:17:03;;;;;;;382.52;129.52;;;;;;;1.05;100.00;100452.91;5609229;31;34866;-75
2023/12/30 03:20:09;;;;;;;528.60;156.48;;;;;;;0.94;100.00;100454.56;5609594;31;34008;-75
2023/12/30 03:23:13;;;;;;;403.95;135.98;;;;;;;1.10;100.00;100455.22;5609506;31;34616;-75
2023/12/30 03:26:15;;;;;;;352.08;136.75;;;;;;;1.10;100.00;100453.44;5609350;31;34051;-74
2023/12/30 03:29:18;;;;;;;649.10;175.32;;;;;;;1.05;100.00;100452.91;5609474;31;34013;-75
2023/12/30 03:32:21;;;;;;;629.53;165.62;;;;;;;1.11;100.00;100468.16;5609339;31;34037;-74
2023/12/30 03:35:25;;;;;;;312.15;126.93;;;;;;;1.12;100.00;100455.91;5608586;31;34125;-74
2023/12/30 03:38:28;;;;;;;381.05;134.77;;;;;;;1.05;100.00;100444.22;5609420;31;34144;-74
2023/12/30 03:41:31;;;;;;;409.33;139.80;;;;;;;1.02;100.00;100442.66;5609347;31;34107;-75
2023/12/30 03:44:34;;;;;;;293.67;120.40;;;;;;;1.00;100.00;100439.31;5609152;31;34859;-75
2023/12/30 03:47:37;;;;;;;437.60;135.80;;;;;;;1.00;100.00;100439.31;5609240;31;34277;-74
2023/12/30 03:50:40;;;;;;;528.08;161.48;;;;;;;0.98;100.00;100449.03;5609149;31;34036;-74
2023/12/30 03:53:44;;;;;;;332.52;119.00;;;;;;;1.03;100.00;100448.72;5609141;31;34137;-74
2023/12/30 03:56:47;;;;;;;599.60;167.45;;;;;;;1.04;100.00;100450.37;5608465;31;34767;-74
2023/12/30 03:59:51;;;;;;;228.65;109.12;;;;;;;1.00;100.00;100444.56;5609163;31;34103;-74
2023/12/30 04:02:54;;;;;;;194.25;104.30;;;;;;;0.89;100.00;100441.84;5609079;31;34713;-75
2023/12/30 04:05:58;;;;;;;171.73;98.10;;;;;;;0.95;100.00;100446.63;5609062;31;34907;-74
2023/12/30 04:09:01;;;;;;;208.25;105.30;;;;;;;0.89;100.00;100447.06;5608874;31;34128;-75
2023/12/30 04:12:04;;;;;;;484.65;150.68;;;;;;;0.94;100.00;100444.97;5609049;31;34762;-74
2023/12/30 04:15:07;;;;;;;213.70;104.53;;;;;;;0.89;100.00;100452.28;5608176;31;34780;-74
2023/12/30 04:18:10;;;;;;;213.73;104.57;;;;;;;0.85;100.00;100456.03;5608719;31;34220;-74
2023/12/30 04:21:13;;;;;;;188.95;100.95;;;;;;;0.82;100.00;100454.47;5608109;31;34073;-74
2023/12/30 04:24:21;;;;;;;182.30;97.43;;;;;;;0.72;100.00;100456.03;5608811;31;34933;-74
2023/12/30 04:27:24;;;;;;;207.55;106.97;;;;;;;0.75;100.00;100466.28;5609300;31;34209;-74
2023/12/30 04:30:27;;;;;;;227.20;110.12;;;;;;;0.68;100.00;100448.50;5608917;31;35080;-74
2023/12/30 04:33:30;;;;;;;156.07;88.78;;;;;;;0.73;100.00;100455.09;5608112;31;33982;-75
2023/12/30 04:36:33;;;;;;;168.70;97.20;;;;;;;0.75;100.00;100452.38;5609185;31;34173;-75
2023/12/30 04:39:36;;;;;;;121.13;81.93;;;;;;;0.71;100.00;100461.38;5608766;31;34648;-75
2023/12/30 04:42:40;;;;;;;156.80;93.03;;;;;;;0.54;100.00;100439.00;5608753;31;35572;-74
2023/12/30 04:45:43;;;;;;;113.22;80.78;;;;;;;0.61;100.00;100444.66;5608687;31;34097;-75
2023/12/30 04:48:48;;;;;;;140.35;90.65;;;;;;;0.60;100.00;100461.25;5608669;31;34926;-75
2023/12/30 04:51:51;;;;;;;152.07;94.53;;;;;;;0.62;100.00;100460.22;5608631;31;34185;-74
2023/12/30 04:54:55;;;;;;;157.40;99.80;;;;;;;0.60;100.00;100458.63;5608897;31;34160;-75
2023/12/30 04:57:58;;;;;;;126.53;86.37;;;;;;;0.47;100.00;100456.00;5607875;31;33988;-74
2023/12/30 05:01:01;;;;;;;141.32;94.45;;;;;;;0.49;100.00;100464.56;5608574;31;34782;-74
2023/12/30 05:04:04;;;;;;;135.45;87.88;;;;;;;0.46;100.00;100459.56;5608995;31;34821;-75
2023/12/30 05:07:07;;;;;;;127.78;88.72;;;;;;;0.50;100.00;100468.00;5608594;31;33654;-75
2023/12/30 05:10:10;;;;;;;136.32;91.57;;;;;;;0.50;100.00;100461.00;5608775;31;33961;-75
2023/12/30 05:13:13;;;;;;;133.37;90.10;;;;;;;0.41;100.00;100478.13;5608481;31;34753;-75
2023/12/30 05:16:16;;;;;;;121.72;85.05;;;;;;;0.39;100.00;100474.75;5608267;31;34974;-74
2023/12/30 05:19:19;;;;;;;157.60;97.32;;;;;;;0.41;100.00;100482.50;5608135;31;35088;-74
2023/12/30 05:22:22;;;;;;;173.62;100.85;;;;;;;0.44;100.00;100485.75;5608543;31;34862;-75
2023/12/30 05:25:25;;;;;;;134.80;89.55;;;;;;;0.48;100.00;100477.72;5608284;31;34266;-75
2023/12/30 05:28:28;;;;;;;143.52;92.12;;;;;;;0.49;100.00;100487.22;5608055;31;34743;-76
2023/12/30 05:31:31;;;;;;;180.25;98.05;;;;;;;0.55;100.00;100486.81;5607465;31;34044;-75
2023/12/30 05:34:34;;;;;;;153.00;91.85;;;;;;;0.53;100.00;100493.94;5607892;31;34176;-75
2023/12/30 05:37:37;;;;;;;141.23;89.93;;;;;;;0.56;100.00;100484.09;5607460;31;34020;-75
2023/12/30 05:40:40;;;;;;;149.23;91.45;;;;;;;0.50;100.00;100494.09;5608427;31;34838;-76
2023/12/30 05:43:43;;;;;;;148.95;89.90;;;;;;;0.53;100.00;100497.38;5608100;31;34098;-75
2023/12/30 05:46:46;;;;;;;237.38;110.03;;;;;;;0.57;100.00;100495.38;5608120;31;34293;-75
2023/12/30 05:49:49;;;;;;;182.90;96.50;;;;;;;0.54;100.00;100485.13;5608107;31;34381;-75
2023/12/30 05:52:52;;;;;;;159.77;95.47;;;;;;;0.58;100.00;100503.09;5607909;31;33946;-76
2023/12/30 05:55:55;;;;;;;181.93;100.62;;;;;;;0.55;100.00;100505.09;5608322;31;34107;-75
2023/12/30 05:58:58;;;;;;;144.93;90.90;;;;;;;0.54;100.00;100508.63;5607812;31;34842;-75
2023/12/30 06:02:01;;;;;;;154.15;90.35;;;;;;;0.60;100.00;100516.06;5607865;31;34411;-75
2023/12/30 06:05:05;;;;;;;158.85;90.82;;;;;;;0.72;100.00;100518.72;5607958;31;34177;-75
2023/12/30 06:08:07;;;;;;;182.98;96.32;;;;;;;0.56;100.00;100519.81;5606805;31;34012;-75
2023/12/30 06:11:12;;;;;;;254.20;108.22;;;;;;;0.65;100.00;100527.88;5607733;31;34080;-75
2023/12/30 06:14:15;;;;;;;166.23;88.70;;;;;;;0.61;100.00;100533.41;5606740;31;34071;-75
2023/12/30 06:17:18;;;;;;;182.45;92.47;;;;;;;0.50;100.00;100518.44;5607436;31;34124;-74
2023/12/30 06:20:21;;;;;;;352.92;117.15;;;;;;;0.53;100.00;100522.63;5607555;31;35776;-75
2023/12/30 06:23:24;;;;;;;276.85;108.60;;;;;;;0.55;100.00;100533.78;5607424;31;34086;-76
2023/12/30 06:26:26;;;;;;;464.23;141.90;;;;;;;0.56;100.00;100538.09;5607342;31;34738;-74
2023/12/30 06:29:32;;;;;;;245.75;101.15;;;;;;;0.64;100.00;100546.25;5607690;31;34078;-75
2023/12/30 06:32:35;;;;;;;394.30;120.05;;;;;;;0.73;100.00;100546.47;5607261;31;35002;-75
2023/12/30 06:35:38;;;;;;;438.05;114.00;;;;;;;0.60;100.00;100558.66;5607163;31;32487;-75
2023/12/30 06:38:41;;;;;;;364.08;111.07;;;;;;;0.58;100.00;100550.09;5607235;31;34826;-76
2023/12/30 06:41:44;;;;;;;187.37;90.18;;;;;;;0.55;100.00;100546.84;5606317;31;34149;-75
2023/12/30 06:44:47;;;;;;;699.65;168.37;;;;;;;0.55;100.00;100541.63;5607782;31;34123;-75
2023/12/30 06:47:50;;;;;;;244.80;90.43;;;;;;;0.59;100.00;100558.75;5610067;31;34102;-75
2023/12/30 06:50:54;;;;;;;377.75;109.72;;;;;;;0.59;100.00;100558.75;5609591;31;34915;-75
2023/12/30 06:53:57;;;;;;;687.65;159.23;;;;;;;0.57;100.00;100565.87;5609783;31;34750;-74
2023/12/30 06:57:00;;;;;;;233.95;94.32;;;;;;;0.61;100.00;100562.97;5609683;31;34080;-75
2023/12/30 07:00:04;;;;;;;233.30;86.63;;;;;;;0.54;100.00;100587.78;5609710;31;34188;-74
2023/12/30 07:03:07;;;;;;;451.60;125.80;;;;;;;0.46;100.00;100587.44;5608936;31;34281;-75
2023/12/30 07:06:10;;;;;;;278.02;103.65;;;;;;;0.36;100.00;100595.03;5609528;31;34217;-74
2023/12/30 07:09:15;;;;;;;288.48;98.70;;;;;;;0.49;100.00;100600.28;5609827;31;35025;-75
2023/12/30 07:12:18;;;;;;;222.02;86.57;;;;;;;0.55;100.00;100605.12;5609578;31;34358;-77
2023/12/30 07:15:21;;;;;;;360.73;90.60;;;;;;;0.56;100.00;100611.16;5609811;31;34081;-74
2023/12/30 07:18:24;;;;;;;436.10;109.28;;;;;;;0.65;100.00;100606.19;5609714;31;34801;-74
2023/12/30 07:21:27;;;;;;;229.52;88.82;;;;;;;0.51;100.00;100602.81;5609676;31;34965;-75
2023/12/30 07:24:30;;;;;;;434.52;112.53;;;;;;;0.66;100.00;100610.50;5609400;31;34722;-75
2023/12/30 07:27:33;;;;;;;299.67;94.15;;;;;;;0.59;100.00;100593.53;5609345;31;34117;-75
2023/12/30 07:30:36;;;;;;;372.83;106.18;;;;;;;0.74;100.00;100604.75;5609557;31;34194;-75
2023/12/30 07:33:39;;;;;;;274.55;100.00;;;;;;;0.79;100.00;100608.75;5609149;31;34777;-75
2023/12/30 07:36:43;;;;;;;306.55;102.40;;;;;;;0.84;100.00;100619.72;5609394;31;34795;-75
2023/12/30 07:39:46;;;;;;;250.77;91.87;;;;;;;0.84;100.00;100627.56;5609563;31;34140;-75
2023/12/30 07:42:49;;;;;;;217.75;94.80;;;;;;;0.81;100.00;100630.37;5608632;31;34756;-76
2023/12/30 07:45:51;;;;;;;314.55;106.03;;;;;;;0.96;100.00;100630.31;5609220;31;34763;-76
2023/12/30 07:48:55;;;;;;;347.17;107.97;;;;;;;1.15;100.00;100639.47;5609480;31;34772;-75
2023/12/30 07:52:00;;;;;;;328.60;104.25;;;;;;;1.25;100.00;100631.84;5609137;31;34230;-75
2023/12/30 07:55:04;;;;;;;242.27;87.75;;;;;;;1.47;100.00;100634.69;5609014;31;34837;-75
2023/12/30 07:58:07;;;;;;;292.80;90.62;;;;;;;1.28;100.00;100634.25;5609414;31;34661;-75
2023/12/30 08:01:10;;;;;;;238.65;93.72;;;;;;;1.25;100.00;100634.47;5608447;31;33989;-73
2023/12/30 08:04:14;;;;;;;167.80;78.37;;;;;;;1.14;100.00;100642.16;5608995;31;34014;-74
2023/12/30 08:07:17;;;;;;;331.13;105.60;;;;;;;1.22;100.00;100645.09;5608936;31;34343;-74
2023/12/30 08:10:21;;;;;;;458.70;127.70;;;;;;;1.20;100.00;100647.00;5608770;31;34215;-74
2023/12/30 08:13:24;;;;;;;301.15;105.93;;;;;;;1.23;100.00;100657.22;5608922;31;34250;-74
2023/12/30 08:16:27;;;;;;;498.23;136.82;;;;;;;1.09;100.00;100660.75;5609252;31;34060;-74
2023/12/30 08:19:30;;;;;;;293.70;99.62;;;;;;;1.23;100.00;100652.00;5608865;31;34198;-74
2023/12/30 08:22:33;;;;;;;275.95;95.03;;;;;;;1.30;100.00;100655.91;5608787;31;35028;-75
2023/12/30 08:25:36;;;;;;;165.32;79.18;;;;;;;1.59;100.00;100653.94;5608813;31;32939;-74
2023/12/30 08:28:39;;;;;;;130.07;70.53;;;;;;;1.62;100.00;100661.56;5608728;31;34714;-74
2023/12/30 08:31:45;;;;;;;136.65;73.32;;;;;;;1.57;100.00;100642.75;5609176;31;34141;-74
2023/12/30 08:34:50;;;;;;;112.40;65.00;;;;;;;1.59;100.00;100646.09;5608932;31;34233;-75
2023/12/30 08:37:53;;;;;;;146.68;75.53;;;;;;;1.67;100.00;100660.31;5608899;31;33954;-75
2023/12/30 08:40:56;;;;;;;155.87;74.95;;;;;;;1.76;100.00;100658.84;5608030;31;34803;-74
2023/12/30 08:44:00;;;;;;;110.45;65.82;;;;;;;1.85;100.00;100654.75;5609203;31;34739;-74
2023/12/30 08:47:04;;;;;;;104.68;62.28;;;;;;;1.96;100.00;100667.94;5608932;31;34106;-74
2023/12/30 08:50:08;;;;;;;101.85;64.15;;;;;;;2.04;100.00;100674.31;5607951;31;34797;-74
2023/12/30 08:53:11;;;;;;;72.18;51.65;;;;;;;2.01;100.00;100677.16;5608690;31;34357;-74
2023/12/30 08:56:14;;;;;;;89.65;57.45;;;;;;;2.22;100.00;100671.37;5608676;31;34036;-74
2023/12/30 08:59:17;;;;;;;78.40;52.70;;;;;;;2.44;100.00;100679.38;5608771;31;34016;-74
2023/12/30 09:02:20;;;;;;;66.65;48.70;;;;;;;2.66;100.00;100691.81;5608550;31;34032;-74
2023/12/30 09:05:23;;;;;;;78.53;53.38;;;;;;;2.55;100.00;100685.53;5608363;31;34020;-75
2023/12/30 09:08:26;;;;;;;66.85;48.58;;;;;;;2.34;100.00;100689.66;5607702;31;33879;-75
2023/12/30 09:11:32;;;;;;;73.62;50.42;;;;;;;2.32;100.00;100688.97;5607643;31;34392;-75
2023/12/30 09:14:35;;;;;;;68.75;50.20;;;;;;;2.30;100.00;100687.38;5608367;31;34101;-74
2023/12/30 09:17:38;;;;;;;77.62;51.67;;;;;;;2.34;100.00;100680.97;5607997;31;34595;-75
2023/12/30 09:20:42;;;;;;;78.00;52.92;;;;;;;2.28;100.00;100670.94;5608165;31;34750;-75
2023/12/30 09:23:45;;;;;;;65.53;48.20;;;;;;;2.27;100.00;100677.13;5607799;31;34948;-76
2023/12/30 09:26:48;;;;;;;65.30;48.78;;;;;;;2.18;100.00;100676.81;5608088;31;34712;-74
2023/12/30 09:29:50;;;;;;;61.50;47.22;;;;;;;2.25;100.00;100677.22;5608075;31;34113;-74
2023/12/30 09:32:53;;;;;;;65.25;48.60;;;;;;;2.30;100.00;100688.22;5607885;31;34168;-74
2023/12/30 09:35:57;;;;;;;69.68;48.22;;;;;;;2.47;100.00;100676.56;5607953;31;34229;-74
2023/12/30 09:39:00;;;;;;;58.58;45.12;;;;;;;2.66;100.00;100663.81;5607877;31;34822;-74
2023/12/30 09:42:04;;;;;;;59.45;46.45;;;;;;;2.87;100.00;100670.13;5607931;31;33987;-74
2023/12/30 09:45:09;;;;;;;63.05;46.67;;;;;;;2.88;100.00;100670.94;5607261;31;35200;-74
2023/12/30 09:48:14;;;;;;;53.08;43.05;;;;;;;2.92;100.00;100665.38;5606972;31;34256;-73
2023/12/30 09:51:17;;;;;;;57.15;44.35;;;;;;;3.11;100.00;100669.25;5607603;31;34139;-75
2023/12/30 09:54:20;;;;;;;51.65;41.63;;;;;;;3.22;100.00;100671.94;5607606;31;34544;-74
2023/12/30 09:57:28;;;;;;;51.72;41.97;;;;;;;3.37;100.00;100676.88;5607670;31;35103;-74
2023/12/30 10:00:31;;;;;;;55.42;43.03;;;;;;;3.32;100.00;100675.53;5607138;31;34852;-73
2023/12/30 10:03:35;;;;;;;55.33;42.88;;;;;;;3.42;100.00;100676.53;5607381;31;34049;-73
2023/12/30 10:06:40;;;;;;;53.08;42.22;;;;;;;3.66;100.00;100681.72;5606587;31;34198;-74
2023/12/30 10:09:46;;;;;;;46.55;38.78;;;;;;;4.13;100.00;100671.03;5607461;31;34376;-74
2023/12/30 10:12:49;;;;;;;50.65;39.70;;;;;;;4.09;100.00;100661.72;5607206;31;34406;-74
2023/12/30 10:15:54;;;;;;;51.78;40.35;;;;;;;4.12;100.00;100663.25;5607122;31;34303;-75
2023/12/30 10:18:57;;;;;;;49.65;39.97;;;;;;;4.36;100.00;100653.44;5606668;31;34778;-74
2023/12/30 10:22:01;;;;;;;47.42;38.63;;;;;;;4.41;100.00;100651.28;5609042;31;34071;-73
2023/12/30 10:25:04;;;;;;;50.00;40.05;;;;;;;4.25;100.00;100648.22;5608557;31;34315;-74
2023/12/30 10:28:07;;;;;;;48.90;40.03;;;;;;;4.04;100.00;100642.88;5609567;31;34753;-74
2023/12/30 10:31:11;;;;;;;48.03;39.67;;;;;;;4.11;100.00;100643.22;5609567;31;34761;-74
2023/12/30 10:34:20;;;;;;;50.53;40.88;;;;;;;4.26;100.00;100642.03;5609526;31;35534;-73
2023/12/30 10:37:23;;;;;;;51.85;41.95;;;;;;;4.37;100.00;100634.94;5609421;31;34165;-73
2023/12/30 10:40:26;;;;;;;49.80;40.58;;;;;;;4.61;100.00;100633.94;5609498;31;34085;-74
2023/12/30 10:43:29;;;;;;;49.30;40.53;;;;;;;4.87;100.00;100637.94;5609806;31;34760;-75
2023/12/30 10:46:34;;;;;;;50.95;39.88;;;;;;;4.93;100.00;100626.09;5609510;31;34049;-74
2023/12/30 10:49:40;;;;;;;51.75;40.12;;;;;;;5.42;100.00;100621.03;5609424;31;34113;-75
2023/12/30 10:52:55;;;;;;;49.33;39.75;;;;;;;5.59;100.00;100619.63;5609200;31;34784;-75
2023/12/30 10:56:03;;;;;;;46.88;38.60;;;;;;;5.98;100.00;100618.06;5608691;31;34411;-75
2023/12/30 10:59:07;;;;;;;48.17;38.92;;;;;;;6.18;100.00;100613.69;5609601;31;34914;-74
2023/12/30 11:02:10;;;;;;;46.78;36.95;;;;;;;6.26;100.00;100604.13;5609386;31;34162;-73
2023/12/30 11:05:24;;;;;;;46.53;37.30;;;;;;;6.57;100.00;100598.81;5608967;31;34040;-74
2023/12/30 11:08:28;;;;;;;46.88;36.97;;;;;;;6.89;100.00;100609.91;5608947;31;34803;-74
2023/12/30 11:11:31;;;;;;;45.95;37.65;;;;;;;6.99;100.00;100613.41;5609205;31;34125;-74
2023/12/30 11:14:36;;;;;;;45.15;35.60;;;;;;;7.05;100.00;100604.09;5609299;31;34126;-74
2023/12/30 11:17:42;;;;;;;42.00;33.78;;;;;;;7.24;100.00;100606.72;5608394;31;35125;-74
2023/12/30 11:20:46;;;;;;;45.90;35.65;;;;;;;7.36;100.00;100603.75;5607956;31;34353;-74
2023/12/30 11:23:59;;;;;;;45.00;33.67;;;;;;;7.65;100.00;100606.34;5608506;31;34103;-74
2023/12/30 11:27:04;;;;;;;43.92;33.17;;;;;;;7.84;100.00;100601.00;5607967;31;34463;-74
2023/12/30 11:30:17;;;;;;;41.20;33.55;;;;;;;7.59;100.00;100585.81;5607815;31;34405;-74
2023/12/30 11:33:19;;;;;;;40.35;32.47;;;;;;;7.72;100.00;100577.56;5607879;31;34063;-73
2023/12/30 11:36:23;;;;;;;40.45;32.65;;;;;;;7.97;100.00;100573.44;5608036;31;34495;-74
2023/12/30 11:39:28;;;;;;;46.15;33.33;;;;;;;8.20;100.00;100577.34;5608125;31;34210;-74
2023/12/30 11:42:31;;;;;;;41.20;31.95;;;;;;;8.39;100.00;100577.25;5607423;31;34640;-74
2023/12/30 11:45:47;;;;;;;40.22;31.30;;;;;;;8.60;100.00;100559.31;5607950;31;34702;-74
2023/12/30 11:48:50;;;;;;;43.13;31.95;;;;;;;8.66;100.00;100565.81;5608071;31;34982;-74
2023/12/30 11:52:07;;;;;;;42.00;32.83;;;;;;;8.60;100.00;100559.31;5608061;31;34926;-74
2023/12/30 11:55:11;;;;;;;41.08;31.37;;;;;;;8.80;100.00;100570.56;5607578;31;34696;-75
2023/12/30 11:58:17;;;;;;;42.30;30.90;;;;;;;8.86;100.00;100558.56;5607864;31;34153;-75
2023/12/30 12:01:20;;;;;;;38.33;30.48;;;;;;;8.93;100.00;100555.13;5607146;31;34021;-74
2023/12/30 12:04:26;;;;;;;43.72;31.67;;;;;;;9.04;100.00;100554.91;5606846;31;34128;-74
2023/12/30 12:07:29;;;;;;;37.50;30.23;;;;;;;9.14;100.00;100552.16;5607373;31;35112;-74
2023/12/30 12:10:33;;;;;;;41.70;30.15;;;;;;;9.34;100.00;100551.00;5607288;31;33949;-76
2023/12/30 12:13:36;;;;;;;42.92;30.23;;;;;;;9.63;100.00;100550.66;5607706;31;34828;-75
2023/12/30 12:16:39;;;;;;;41.65;28.48;;;;;;;9.85;100.00;100550.09;5602349;31;138468;-74
2023/12/30 12:19:42;;;;;;;31.30;23.73;;;;;;;10.01;100.00;100560.78;5608857;31;34390;-74
2023/12/30 12:22:46;;;;;;;32.22;24.70;;;;;;;9.91;100.00;100556.59;5608696;31;34677;-74
2023/12/30 12:25:49;;;;;;;32.05;23.05;;;;;;;9.95;100.00;100552.63;5608085;31;34737;-74
2023/12/30 12:28:53;;;;;;;32.13;22.87;;;;;;;10.02;100.00;100554.47;5608656;31;34393;-75
2023/12/30 12:31:56;;;;;;;31.08;23.52;;;;;;;9.89;100.00;100554.09;5608868;31;34664;-75
2023/12/30 12:35:00;;;;;;;31.52;23.62;;;;;;;9.78;100.00;100542.94;5608858;31;34263;-74
2023/12/30 12:38:03;;;;;;;31.98;23.60;;;;;;;9.77;100.00;100549.22;5608417;31;35882;-75
2023/12/30 12:41:06;;;;;;;33.53;23.48;;;;;;;9.76;100.00;100552.88;5608691;31;34843;-75
2023/12/30 12:44:09;;;;;;;24.55;17.27;;;;;;;9.73;100.00;100559.28;5608209;31;34241;-75
2023/12/30 12:47:12;;;;;;;21.70;17.02;;;;;;;9.89;100.00;100554.09;5608917;31;34068;-74
2023/12/30 12:50:15;;;;;;;25.70;18.55;;;;;;;10.07;100.00;100555.81;5608673;31;33965;-74
2023/12/30 12:53:18;;;;;;;23.00;17.42;;;;;;;10.22;100.00;100554.22;5607764;31;34003;-73
2023/12/30 12:56:21;;;;;;;27.05;19.83;;;;;;;10.43;100.00;100549.31;5608447;31;34710;-75
2023/12/30 12:59:24;;;;;;;13.65;10.43;;;;;;;10.68;100.00;100552.84;5607474;31;34200;-74
2023/12/30 13:02:28;;;;;;;11.02;8.02;;;;;;;10.94;100.00;100550.06;5608391;31;34766;-74
2023/12/30 13:05:31;;;;;;;13.68;8.20;;;;;;;11.45;100.00;100552.31;5608337;31;34099;-74
2023/12/30 13:08:34;;;;;;;11.57;7.65;;;;;;;11.73;100.00;100556.25;5608034;31;34130;-74
2023/12/30 13:11:46;;;;;;;12.35;7.18;;;;;;;11.62;100.00;100561.91;5607678;31;33986;-74
2023/12/30 13:14:51;;;;;;;11.63;7.15;;;;;;;11.40;100.00;100559.97;5607549;31;35309;-74
2023/12/30 13:17:54;;;;;;;11.50;6.80;;;;;;;11.27;100.00;100551.69;5607238;31;34833;-74
2023/12/30 13:20:58;;;;;;;12.00;7.05;;;;;;;11.21;100.00;100561.16;5608240;31;35075;-73
2023/12/30 13:24:01;;;;;;;15.70;7.18;;;;;;;11.20;100.00;100561.31;5608183;31;34103;-74
2023/12/30 13:27:05;;;;;;;10.77;6.37;;;;;;;11.18;100.00;100561.47;5608110;31;34014;-74
2023/12/30 13:30:09;;;;;;;10.18;7.10;;;;;;;11.16;100.00;100560.00;5607892;31;34960;-73
2023/12/30 13:33:16;;;;;;;13.40;7.32;;;;;;;11.07;100.00;100561.00;5608440;31;34100;-73
2023/12/30 13:36:20;;;;;;;9.70;7.28;;;;;;;11.02;100.00;100555.34;5608140;31;34146;-73
2023/12/30 13:39:24;;;;;;;9.10;6.82;;;;;;;10.93;100.00;100564.31;5594388;31;34046;-74
2023/12/30 13:42:27;;;;;;;18.73;8.07;;;;;;;10.77;100.00;100558.00;5594398;31;34139;-74
2023/12/30 13:45:32;;;;;;;11.88;8.50;;;;;;;10.90;100.00;100560.16;5608081;31;34102;-74